createdAt,value
2019-05-09T00:00:29.072Z,10.63
2019-05-09T00:01:29.059Z,10.66
2019-05-09T00:02:29.052Z,10.68
2019-05-09T00:03:29.037Z,10.58
2019-05-09T00:04:29.042Z,10.47
2019-05-09T00:05:29.014Z,10.59
2019-05-09T00:06:29.001Z,10.51
2019-05-09T00:07:28.989Z,10.46
2019-05-09T00:08:28.979Z,10.40
2019-05-09T00:09:28.984Z,10.43
2019-05-09T00:10:39.348Z,10.37
2019-05-09T00:11:29.945Z,10.42
2019-05-09T00:12:28.934Z,10.44
2019-05-09T00:13:28.922Z,10.36
2019-05-09T00:14:28.952Z,10.42
2019-05-09T00:15:28.896Z,10.37
2019-05-09T00:16:28.884Z,10.33
2019-05-09T00:17:28.877Z,10.28
2019-05-09T00:18:28.864Z,10.22
2019-05-09T00:19:28.855Z,10.32
2019-05-09T00:20:28.864Z,10.17
2019-05-09T00:21:28.827Z,10.25
2019-05-09T00:22:28.819Z,10.17
2019-05-09T00:23:28.809Z,10.21
2019-05-09T00:24:28.794Z,10.12
2019-05-09T00:25:28.785Z,10.15
2019-05-09T00:26:28.790Z,10.19
2019-05-09T00:27:28.761Z,10.22
2019-05-09T00:28:28.757Z,10.17
2019-05-09T00:29:28.735Z,10.19
2019-05-09T00:30:28.725Z,10.12
2019-05-09T00:31:28.729Z,10.12
2019-05-09T00:32:28.703Z,10.18
2019-05-09T00:33:28.696Z,10.24
2019-05-09T00:34:28.678Z,10.17
2019-05-09T00:35:28.666Z,10.15
2019-05-09T00:36:28.675Z,10.18
2019-05-09T00:37:28.644Z,10.15
2019-05-09T00:38:28.631Z,10.18
2019-05-09T00:39:28.621Z,10.12
2019-05-09T00:40:28.610Z,10.19
2019-05-09T00:41:28.623Z,10.17
2019-05-09T00:42:28.585Z,10.15
2019-05-09T00:43:28.578Z,10.06
2019-05-09T00:44:28.559Z,10.10
2019-05-09T00:45:28.553Z,10.17
2019-05-09T00:46:28.555Z,10.06
2019-05-09T00:47:28.525Z,10.17
2019-05-09T00:48:28.515Z,10.12
2019-05-09T00:49:28.502Z,10.12
2019-05-09T00:50:29.670Z,10.04
2019-05-09T00:51:28.497Z,10.12
2019-05-09T00:52:28.470Z,10.14
2019-05-09T00:53:28.455Z,10.12
2019-05-09T00:54:28.447Z,10.03
2019-05-09T00:55:28.434Z,10.18
2019-05-09T00:56:28.466Z,10.03
2019-05-09T00:57:28.412Z,10.12
2019-05-09T00:58:28.397Z,10.14
2019-05-09T00:59:28.389Z,10.12
2019-05-09T01:00:28.378Z,10.09
2019-05-09T01:01:28.365Z,10.01
2019-05-09T01:02:28.372Z,10.04
2019-05-09T01:03:28.341Z,9.96
2019-05-09T01:04:28.329Z,9.89
2019-05-09T01:05:28.319Z,9.93
2019-05-09T01:06:28.305Z,9.96
2019-05-09T01:07:28.315Z,9.91
2019-05-09T01:08:28.281Z,9.94
2019-05-09T01:09:28.272Z,9.96
2019-05-09T01:10:28.259Z,9.96
2019-05-09T01:11:28.248Z,9.83
2019-05-09T01:12:28.257Z,9.88
2019-05-09T01:13:28.226Z,9.81
2019-05-09T01:14:28.212Z,9.83
2019-05-09T01:15:28.201Z,9.79
2019-05-09T01:16:28.189Z,9.70
2019-05-09T01:17:28.198Z,9.82
2019-05-09T01:18:28.169Z,9.78
2019-05-09T01:19:28.154Z,9.71
2019-05-09T01:20:28.145Z,9.71
2019-05-09T01:21:28.136Z,9.68
2019-05-09T01:22:28.140Z,9.79
2019-05-09T01:23:28.108Z,9.60
2019-05-09T01:24:28.103Z,9.58
2019-05-09T01:25:28.089Z,9.64
2019-05-09T01:26:28.073Z,9.57
2019-05-09T01:27:28.080Z,9.58
2019-05-09T01:28:28.049Z,9.58
2019-05-09T01:29:28.042Z,9.43
2019-05-09T01:30:28.025Z,9.60
2019-05-09T01:31:28.015Z,9.58
2019-05-09T01:32:28.021Z,9.53
2019-05-09T01:33:27.991Z,9.56
2019-05-09T01:34:27.978Z,9.39
2019-05-09T01:35:27.967Z,9.50
2019-05-09T01:36:27.956Z,9.53
2019-05-09T01:37:27.967Z,9.48
2019-05-09T01:38:27.934Z,9.43
2019-05-09T01:39:27.921Z,9.38
2019-05-09T01:40:27.909Z,9.35
2019-05-09T01:41:33.401Z,9.32
2019-05-09T01:42:28.910Z,9.27
2019-05-09T01:43:27.873Z,9.38
2019-05-09T01:44:27.861Z,9.38
2019-05-09T01:45:27.867Z,9.39
2019-05-09T01:46:27.841Z,9.39
2019-05-09T01:47:27.827Z,9.39
2019-05-09T01:48:27.839Z,9.43
2019-05-09T01:49:27.813Z,9.46
2019-05-09T01:50:27.794Z,9.43
2019-05-09T01:51:27.779Z,9.31
2019-05-09T01:52:27.770Z,9.45
2019-05-09T01:53:27.775Z,9.45
2019-05-09T01:54:27.750Z,9.46
2019-05-09T01:55:27.733Z,9.49
2019-05-09T01:56:27.723Z,9.56
2019-05-09T01:57:27.712Z,9.45
2019-05-09T01:58:27.722Z,9.45
2019-05-09T01:59:27.692Z,9.49
2019-05-09T02:00:27.678Z,9.53
2019-05-09T02:01:27.665Z,9.48
2019-05-09T02:02:27.857Z,9.49
2019-05-09T02:03:27.664Z,9.46
2019-05-09T02:04:27.631Z,9.42
2019-05-09T02:05:27.621Z,9.46
2019-05-09T02:06:27.610Z,9.49
2019-05-09T02:07:27.597Z,9.50
2019-05-09T02:08:27.608Z,9.43
2019-05-09T02:09:27.574Z,9.40
2019-05-09T02:10:27.559Z,9.38
2019-05-09T02:11:39.398Z,9.43
2019-05-09T02:12:28.538Z,9.50
2019-05-09T02:13:27.529Z,9.48
2019-05-09T02:14:27.534Z,9.53
2019-05-09T02:15:27.503Z,9.40
2019-05-09T02:16:27.490Z,9.43
2019-05-09T02:17:27.483Z,9.39
2019-05-09T02:18:27.468Z,9.35
2019-05-09T02:19:27.478Z,9.52
2019-05-09T02:20:27.445Z,9.46
2019-05-09T02:21:27.434Z,9.42
2019-05-09T02:22:27.420Z,9.42
2019-05-09T02:23:27.408Z,9.57
2019-05-09T02:24:27.415Z,9.43
2019-05-09T02:25:27.385Z,9.48
2019-05-09T02:26:27.377Z,9.46
2019-05-09T02:27:27.365Z,9.46
2019-05-09T02:28:27.351Z,9.45
2019-05-09T02:29:27.361Z,9.45
2019-05-09T02:30:27.329Z,9.32
2019-05-09T02:31:27.319Z,9.40
2019-05-09T02:32:27.306Z,9.34
2019-05-09T02:33:27.295Z,9.40
2019-05-09T02:34:27.304Z,9.46
2019-05-09T02:35:29.327Z,9.40
2019-05-09T02:36:29.561Z,9.42
2019-05-09T02:37:28.789Z,9.42
2019-05-09T02:38:28.711Z,9.35
2019-05-09T02:39:29.407Z,9.32
2019-05-09T02:40:28.531Z,9.39
2019-05-09T02:41:28.660Z,9.40
2019-05-09T02:42:28.122Z,9.32
2019-05-09T02:43:29.016Z,9.49
2019-05-09T02:44:28.915Z,9.32
2019-05-09T02:45:28.423Z,9.35
2019-05-09T02:46:29.419Z,9.35
2019-05-09T02:47:28.967Z,9.25
2019-05-09T02:48:28.836Z,9.45
2019-05-09T02:49:28.739Z,9.28
2019-05-09T02:50:28.609Z,9.31
2019-05-09T02:51:29.235Z,9.30
2019-05-09T02:52:28.724Z,9.32
2019-05-09T02:53:28.868Z,9.34
2019-05-09T02:54:29.840Z,9.28
2019-05-09T02:55:28.830Z,9.28
2019-05-09T02:56:29.459Z,9.31
2019-05-09T02:57:29.381Z,9.31
2019-05-09T02:58:28.192Z,9.31
2019-05-09T02:59:29.653Z,9.32
2019-05-09T03:00:28.896Z,9.25
2019-05-09T03:01:29.406Z,9.21
2019-05-09T03:02:28.878Z,9.24
2019-05-09T03:03:29.099Z,9.27
2019-05-09T03:04:28.433Z,9.30
2019-05-09T03:05:29.692Z,9.32
2019-05-09T03:06:28.407Z,9.34
2019-05-09T03:07:28.833Z,9.23
2019-05-09T03:08:29.615Z,9.16
2019-05-09T03:09:28.619Z,9.27
2019-05-09T03:10:29.281Z,9.13
2019-05-09T03:11:28.965Z,9.15
2019-05-09T03:12:35.172Z,9.15
2019-05-09T03:13:29.093Z,9.23
2019-05-09T03:14:28.690Z,9.13
2019-05-09T03:15:29.114Z,9.15
2019-05-09T03:16:29.277Z,8.97
2019-05-09T03:17:28.085Z,9.18
2019-05-09T03:18:28.652Z,9.16
2019-05-09T03:19:29.431Z,9.09
2019-05-09T03:20:28.894Z,9.04
2019-05-09T03:21:29.852Z,9.12
2019-05-09T03:22:28.905Z,9.05
2019-05-09T03:23:28.562Z,9.10
2019-05-09T03:24:28.761Z,9.05
2019-05-09T03:25:28.940Z,9.04
2019-05-09T03:26:29.227Z,9.04
2019-05-09T03:27:28.734Z,8.96
2019-05-09T03:28:28.361Z,8.87
2019-05-09T03:29:29.146Z,8.96
2019-05-09T03:30:29.061Z,9.02
2019-05-09T03:31:29.597Z,8.90
2019-05-09T03:32:29.747Z,8.87
2019-05-09T03:33:29.623Z,8.86
2019-05-09T03:34:30.080Z,8.87
2019-05-09T03:35:27.568Z,8.73
2019-05-09T03:36:28.107Z,8.71
2019-05-09T03:37:27.841Z,8.71
2019-05-09T03:38:28.421Z,8.73
2019-05-09T03:39:27.637Z,8.79
2019-05-09T03:40:27.210Z,8.72
2019-05-09T03:41:28.198Z,8.68
2019-05-09T03:42:38.093Z,8.62
2019-05-09T03:43:27.656Z,8.58
2019-05-09T03:44:28.227Z,8.62
2019-05-09T03:45:27.330Z,8.62
2019-05-09T03:46:28.027Z,8.63
2019-05-09T03:47:27.613Z,8.54
2019-05-09T03:48:28.376Z,8.57
2019-05-09T03:49:28.397Z,8.65
2019-05-09T03:50:27.955Z,8.58
2019-05-09T03:51:27.498Z,8.50
2019-05-09T03:52:27.974Z,8.63
2019-05-09T03:53:27.564Z,8.58
2019-05-09T03:54:28.314Z,8.60
2019-05-09T03:55:28.142Z,8.51
2019-05-09T03:56:27.373Z,8.50
2019-05-09T03:57:28.282Z,8.45
2019-05-09T03:58:28.134Z,8.44
2019-05-09T03:59:27.858Z,8.45
2019-05-09T04:00:28.266Z,8.36
2019-05-09T04:01:28.047Z,8.33
2019-05-09T04:02:28.083Z,8.42
2019-05-09T04:03:27.691Z,8.42
2019-05-09T04:04:28.058Z,8.35
2019-05-09T04:05:27.294Z,8.36
2019-05-09T04:06:28.223Z,8.39
2019-05-09T04:07:27.772Z,8.30
2019-05-09T04:08:28.101Z,8.35
2019-05-09T04:09:27.345Z,8.37
2019-05-09T04:10:28.084Z,8.32
2019-05-09T04:11:27.615Z,8.35
2019-05-09T04:12:28.332Z,8.48
2019-05-09T04:13:28.295Z,8.35
2019-05-09T04:14:28.077Z,8.42
2019-05-09T04:15:27.478Z,8.44
2019-05-09T04:16:27.689Z,8.36
2019-05-09T04:17:28.054Z,8.39
2019-05-09T04:18:27.738Z,8.35
2019-05-09T04:19:27.587Z,8.39
2019-05-09T04:20:27.692Z,8.32
2019-05-09T04:21:27.986Z,8.35
2019-05-09T04:22:27.144Z,8.35
2019-05-09T04:23:27.517Z,8.36
2019-05-09T04:24:27.976Z,8.36
2019-05-09T04:25:27.362Z,8.35
2019-05-09T04:26:27.685Z,8.39
2019-05-09T04:27:29.664Z,8.45
2019-05-09T04:28:27.773Z,8.29
2019-05-09T04:29:28.409Z,8.40
2019-05-09T04:30:27.438Z,8.35
2019-05-09T04:31:27.828Z,8.51
2019-05-09T04:32:27.379Z,8.36
2019-05-09T04:33:27.812Z,8.44
2019-05-09T04:34:27.539Z,8.42
2019-05-09T04:35:27.832Z,8.40
2019-05-09T04:36:27.335Z,8.47
2019-05-09T04:37:28.120Z,8.36
2019-05-09T04:38:27.934Z,8.51
2019-05-09T04:39:28.013Z,8.39
2019-05-09T04:40:31.140Z,8.37
2019-05-09T04:41:28.559Z,8.37
2019-05-09T04:42:25.814Z,8.37
2019-05-09T04:43:34.302Z,8.44
2019-05-09T04:44:28.388Z,8.39
2019-05-09T04:45:28.171Z,8.36
2019-05-09T04:46:27.738Z,8.47
2019-05-09T04:47:27.648Z,8.44
2019-05-09T04:48:28.037Z,8.55
2019-05-09T04:49:39.259Z,8.54
2019-05-09T04:50:27.951Z,8.63
2019-05-09T04:51:25.692Z,8.62
2019-05-09T04:52:27.823Z,8.62
2019-05-09T04:53:25.668Z,8.71
2019-05-09T04:54:27.878Z,8.75
2019-05-09T04:55:27.325Z,8.62
2019-05-09T04:56:27.736Z,8.75
2019-05-09T04:57:27.758Z,8.63
2019-05-09T04:58:27.382Z,8.71
2019-05-09T04:59:28.142Z,8.72
2019-05-09T05:00:27.338Z,8.72
2019-05-09T05:01:27.987Z,8.66
2019-05-09T05:02:27.557Z,8.83
2019-05-09T05:03:25.555Z,8.71
2019-05-09T05:04:25.540Z,8.71
2019-05-09T05:05:25.526Z,8.78
2019-05-09T05:06:27.907Z,8.73
2019-05-09T05:07:25.505Z,8.76
2019-05-09T05:08:25.513Z,8.68
2019-05-09T05:09:27.594Z,8.75
2019-05-09T05:10:27.351Z,8.68
2019-05-09T05:11:27.762Z,8.76
2019-05-09T05:12:27.586Z,8.81
2019-05-09T05:13:29.018Z,8.75
2019-05-09T05:14:25.421Z,8.72
2019-05-09T05:15:27.557Z,8.71
2019-05-09T05:16:27.409Z,8.75
2019-05-09T05:17:25.388Z,8.84
2019-05-09T05:18:25.397Z,8.91
2019-05-09T05:19:25.365Z,8.94
2019-05-09T05:20:27.633Z,8.91
2019-05-09T05:21:25.341Z,9.05
2019-05-09T05:22:25.329Z,9.12
2019-05-09T05:23:27.470Z,9.10
2019-05-09T05:24:27.657Z,9.21
2019-05-09T05:25:25.294Z,9.21
2019-05-09T05:26:27.573Z,9.13
2019-05-09T05:27:27.654Z,9.20
2019-05-09T05:28:27.687Z,9.20
2019-05-09T05:29:25.247Z,9.28
2019-05-09T05:30:25.236Z,9.32
2019-05-09T05:31:25.225Z,9.35
2019-05-09T05:32:25.212Z,9.32
2019-05-09T05:33:27.654Z,9.35
2019-05-09T05:34:27.330Z,9.45
2019-05-09T05:35:25.177Z,9.46
2019-05-09T05:36:25.167Z,9.49
2019-05-09T05:37:25.156Z,9.52
2019-05-09T05:38:26.991Z,9.43
2019-05-09T05:39:25.142Z,9.60
2019-05-09T05:40:25.118Z,9.70
2019-05-09T05:41:25.109Z,9.61
2019-05-09T05:42:27.688Z,9.88
2019-05-09T05:43:38.540Z,10.00
2019-05-09T05:44:28.123Z,9.99
2019-05-09T05:45:25.061Z,10.07
2019-05-09T05:46:25.051Z,10.06
2019-05-09T05:47:27.243Z,10.03
2019-05-09T05:48:25.046Z,10.04
2019-05-09T05:49:25.038Z,10.00
2019-05-09T05:50:25.026Z,10.18
2019-05-09T05:51:24.994Z,10.10
2019-05-09T05:52:24.984Z,10.21
2019-05-09T05:53:24.975Z,10.24
2019-05-09T05:54:27.524Z,10.30
2019-05-09T05:55:27.318Z,10.33
2019-05-09T05:56:24.938Z,10.28
2019-05-09T05:57:24.927Z,10.47
2019-05-09T05:58:24.916Z,10.47
2019-05-09T05:59:24.922Z,10.59
2019-05-09T06:00:24.894Z,10.66
2019-05-09T06:01:24.883Z,10.77
2019-05-09T06:02:24.869Z,10.80
2019-05-09T06:03:24.860Z,11.01
2019-05-09T06:04:27.405Z,11.07
2019-05-09T06:05:24.834Z,11.14
2019-05-09T06:06:24.824Z,11.13
2019-05-09T06:07:24.813Z,11.29
2019-05-09T06:08:24.801Z,11.34
2019-05-09T06:09:24.808Z,11.38
2019-05-09T06:10:24.776Z,11.46
2019-05-09T06:11:24.763Z,11.59
2019-05-09T06:12:24.793Z,11.62
2019-05-09T06:13:24.741Z,11.53
2019-05-09T06:14:24.748Z,11.65
2019-05-09T06:15:24.715Z,11.62
2019-05-09T06:16:24.707Z,11.54
2019-05-09T06:17:24.694Z,11.71
2019-05-09T06:18:24.681Z,11.65
2019-05-09T06:19:24.688Z,11.57
2019-05-09T06:20:24.658Z,11.52
2019-05-09T06:21:24.646Z,11.61
2019-05-09T06:22:24.637Z,11.68
2019-05-09T06:23:24.624Z,11.86
2019-05-09T06:24:24.631Z,11.97
2019-05-09T06:25:24.602Z,11.96
2019-05-09T06:26:24.589Z,12.04
2019-05-09T06:27:24.577Z,12.12
2019-05-09T06:28:24.567Z,12.20
2019-05-09T06:29:24.571Z,13.25
2019-05-09T06:30:24.542Z,14.19
2019-05-09T06:31:24.535Z,14.13
2019-05-09T06:32:24.521Z,13.76
2019-05-09T06:33:24.508Z,13.55
2019-05-09T06:34:24.515Z,13.46
2019-05-09T06:35:24.484Z,14.02
2019-05-09T06:36:24.475Z,14.16
2019-05-09T06:37:24.462Z,14.17
2019-05-09T06:38:24.449Z,13.77
2019-05-09T06:39:24.479Z,13.47
2019-05-09T06:40:24.431Z,13.36
2019-05-09T06:41:24.413Z,13.36
2019-05-09T06:42:25.472Z,13.22
2019-05-09T06:43:24.392Z,13.04
2019-05-09T06:44:24.379Z,13.25
2019-05-09T06:45:24.388Z,13.51
2019-05-09T06:46:24.362Z,14.60
2019-05-09T06:47:24.362Z,15.78
2019-05-09T06:48:24.335Z,16.67
2019-05-09T06:49:29.294Z,17.33
2019-05-09T06:50:27.172Z,18.02
2019-05-09T06:51:24.298Z,18.29
2019-05-09T06:52:24.287Z,18.42
2019-05-09T06:53:24.274Z,18.55
2019-05-09T06:54:24.264Z,19.13
2019-05-09T06:55:24.269Z,19.47
2019-05-09T06:56:24.241Z,19.94
2019-05-09T06:57:24.231Z,20.27
2019-05-09T06:58:24.217Z,19.93
2019-05-09T06:59:24.205Z,20.02
2019-05-09T07:00:24.215Z,19.98
2019-05-09T07:01:24.190Z,20.69
2019-05-09T07:02:24.172Z,20.76
2019-05-09T07:03:24.160Z,20.77
2019-05-09T07:04:24.150Z,21.27
2019-05-09T07:05:24.178Z,21.05
2019-05-09T07:06:24.127Z,21.66
2019-05-09T07:07:24.115Z,22.52
2019-05-09T07:08:24.103Z,22.31
2019-05-09T07:09:24.091Z,21.72
2019-05-09T07:10:24.083Z,20.30
2019-05-09T07:11:24.090Z,19.38
2019-05-09T07:12:24.056Z,19.38
2019-05-09T07:13:24.047Z,19.24
2019-05-09T07:14:28.677Z,19.15
2019-05-09T07:15:25.021Z,18.86
2019-05-09T07:16:24.031Z,18.80
2019-05-09T07:17:24.002Z,18.57
2019-05-09T07:18:23.989Z,18.42
2019-05-09T07:19:23.977Z,18.31
2019-05-09T07:20:23.972Z,18.73
2019-05-09T07:21:23.977Z,19.28
2019-05-09T07:22:23.945Z,20.00
2019-05-09T07:23:23.935Z,20.25
2019-05-09T07:24:23.931Z,20.23
2019-05-09T07:25:23.912Z,20.31
2019-05-09T07:26:23.920Z,20.71
2019-05-09T07:27:23.890Z,21.21
2019-05-09T07:28:23.891Z,21.36
2019-05-09T07:29:23.866Z,21.24
2019-05-09T07:30:23.859Z,20.83
2019-05-09T07:31:23.860Z,20.66
2019-05-09T07:32:23.831Z,20.74
2019-05-09T07:33:23.822Z,20.74
2019-05-09T07:34:23.809Z,21.38
2019-05-09T07:35:23.799Z,20.90
2019-05-09T07:36:23.812Z,21.39
2019-05-09T07:37:23.774Z,22.06
2019-05-09T07:38:23.766Z,22.78
2019-05-09T07:39:23.752Z,22.87
2019-05-09T07:40:26.897Z,22.14
2019-05-09T07:41:24.769Z,21.99
2019-05-09T07:42:23.721Z,21.11
2019-05-09T07:43:23.708Z,21.30
2019-05-09T07:44:23.697Z,21.45
2019-05-09T07:45:23.684Z,22.31
2019-05-09T07:46:23.673Z,22.69
2019-05-09T07:47:23.679Z,22.69
2019-05-09T07:48:23.652Z,23.20
2019-05-09T07:49:23.639Z,22.80
2019-05-09T07:50:23.633Z,22.86
2019-05-09T07:51:23.620Z,23.05
2019-05-09T07:52:23.627Z,23.67
2019-05-09T07:53:23.598Z,24.29
2019-05-09T07:54:25.663Z,23.77
2019-05-09T07:55:23.576Z,23.65
2019-05-09T07:56:23.563Z,23.53
2019-05-09T07:57:23.574Z,23.68
2019-05-09T07:58:23.542Z,23.31
2019-05-09T07:59:23.534Z,23.31
2019-05-09T08:00:23.525Z,23.27
2019-05-09T08:01:23.522Z,23.75
2019-05-09T08:02:23.516Z,23.75
2019-05-09T08:03:23.490Z,23.55
2019-05-09T08:04:25.324Z,23.62
2019-05-09T08:05:23.466Z,24.00
2019-05-09T08:06:23.456Z,24.56
2019-05-09T08:07:23.466Z,24.19
2019-05-09T08:08:23.444Z,24.05
2019-05-09T08:09:23.423Z,24.24
2019-05-09T08:10:23.410Z,24.34
2019-05-09T08:11:23.402Z,23.32
2019-05-09T08:12:23.391Z,22.77
2019-05-09T08:13:23.397Z,23.61
2019-05-09T08:14:23.375Z,22.64
2019-05-09T08:15:23.358Z,22.72
2019-05-09T08:16:23.398Z,23.70
2019-05-09T08:17:23.334Z,24.05
2019-05-09T08:18:23.348Z,24.59
2019-05-09T08:19:23.312Z,25.62
2019-05-09T08:20:23.303Z,26.20
2019-05-09T08:21:23.293Z,26.04
2019-05-09T08:22:26.051Z,25.49
2019-05-09T08:23:23.267Z,24.52
2019-05-09T08:24:23.279Z,24.79
2019-05-09T08:25:23.249Z,24.27
2019-05-09T08:26:23.247Z,24.04
2019-05-09T08:27:23.225Z,23.98
2019-05-09T08:28:23.216Z,22.75
2019-05-09T08:29:23.223Z,21.42
2019-05-09T08:30:23.195Z,21.59
2019-05-09T08:31:23.183Z,21.61
2019-05-09T08:32:23.171Z,21.54
2019-05-09T08:33:23.162Z,21.90
2019-05-09T08:34:23.169Z,21.61
2019-05-09T08:35:23.139Z,21.85
2019-05-09T08:36:23.127Z,22.01
2019-05-09T08:37:23.116Z,21.79
2019-05-09T08:38:23.107Z,22.09
2019-05-09T08:39:23.113Z,22.50
2019-05-09T08:40:23.086Z,22.82
2019-05-09T08:41:23.074Z,23.11
2019-05-09T08:42:23.062Z,23.45
2019-05-09T08:43:23.056Z,23.50
2019-05-09T08:44:23.058Z,23.85
2019-05-09T08:45:27.533Z,23.68
2019-05-09T08:46:24.024Z,22.72
2019-05-09T08:47:23.015Z,21.91
2019-05-09T08:48:22.999Z,21.06
2019-05-09T08:49:23.007Z,20.39
2019-05-09T08:50:22.975Z,20.09
2019-05-09T08:51:22.962Z,19.61
2019-05-09T08:52:22.951Z,19.33
2019-05-09T08:53:22.941Z,18.92
2019-05-09T08:54:22.950Z,19.32
2019-05-09T08:55:22.921Z,19.90
2019-05-09T08:56:22.908Z,19.91
2019-05-09T08:57:22.899Z,20.54
2019-05-09T08:58:22.887Z,20.23
2019-05-09T08:59:22.892Z,19.65
2019-05-09T09:00:22.862Z,19.55
2019-05-09T09:01:29.693Z,19.31
2019-05-09T09:02:23.838Z,18.86
2019-05-09T09:03:22.833Z,18.73
2019-05-09T09:04:22.840Z,18.40
2019-05-09T09:05:22.805Z,18.24
2019-05-09T09:06:22.800Z,17.85
2019-05-09T09:07:22.783Z,18.03
2019-05-09T09:08:22.772Z,18.70
2019-05-09T09:09:22.763Z,20.12
2019-05-09T09:10:22.768Z,20.81
2019-05-09T09:11:22.739Z,21.54
2019-05-09T09:12:30.567Z,21.08
2019-05-09T09:13:23.714Z,20.27
2019-05-09T09:14:22.706Z,20.76
2019-05-09T09:15:22.710Z,21.08
2019-05-09T09:16:22.783Z,20.42
2019-05-09T09:17:22.699Z,19.69
2019-05-09T09:18:22.672Z,19.06
2019-05-09T09:19:22.650Z,18.59
2019-05-09T09:20:22.655Z,18.24
2019-05-09T09:21:22.623Z,18.73
2019-05-09T09:22:22.617Z,18.27
2019-05-09T09:23:22.601Z,18.19
2019-05-09T09:24:22.590Z,18.42
2019-05-09T09:25:22.597Z,18.80
2019-05-09T09:26:22.567Z,19.01
2019-05-09T09:27:22.554Z,19.88
2019-05-09T09:28:22.544Z,21.06
2019-05-09T09:29:22.535Z,21.24
2019-05-09T09:30:25.110Z,21.42
2019-05-09T09:31:22.508Z,22.23
2019-05-09T09:32:22.501Z,22.99
2019-05-09T09:33:22.488Z,22.90
2019-05-09T09:34:22.475Z,22.07
2019-05-09T09:35:22.464Z,21.35
2019-05-09T09:36:22.475Z,21.09
2019-05-09T09:37:22.444Z,20.65
2019-05-09T09:38:22.435Z,21.17
2019-05-09T09:39:22.420Z,21.46
2019-05-09T09:40:22.413Z,21.06
2019-05-09T09:41:22.417Z,20.64
2019-05-09T09:42:22.387Z,20.08
2019-05-09T09:43:22.374Z,20.06
2019-05-09T09:44:22.642Z,20.15
2019-05-09T09:45:22.351Z,21.39
2019-05-09T09:46:22.358Z,22.68
2019-05-09T09:47:23.518Z,22.68
2019-05-09T09:48:22.319Z,21.95
2019-05-09T09:49:22.307Z,22.27
2019-05-09T09:50:22.296Z,22.75
2019-05-09T09:51:22.323Z,23.12
2019-05-09T09:52:22.280Z,23.50
2019-05-09T09:53:22.265Z,22.87
2019-05-09T09:54:22.250Z,22.43
2019-05-09T09:55:22.239Z,23.20
2019-05-09T09:56:22.670Z,22.64
2019-05-09T09:57:22.242Z,22.80
2019-05-09T09:58:22.208Z,21.54
2019-05-09T09:59:22.194Z,20.59
2019-05-09T10:00:22.182Z,20.51
2019-05-09T10:01:22.171Z,20.53
2019-05-09T10:02:22.177Z,20.47
2019-05-09T10:03:22.346Z,21.24
2019-05-09T10:04:24.374Z,22.60
2019-05-09T10:05:22.127Z,23.86
2019-05-09T10:06:22.123Z,24.56
2019-05-09T10:07:22.123Z,24.94
2019-05-09T10:08:22.096Z,25.07
2019-05-09T10:09:22.083Z,25.44
2019-05-09T10:10:22.075Z,25.25
2019-05-09T10:11:22.063Z,25.83
2019-05-09T10:12:22.068Z,25.89
2019-05-09T10:13:22.042Z,25.47
2019-05-09T10:14:22.031Z,25.12
2019-05-09T10:15:22.018Z,23.80
2019-05-09T10:16:28.743Z,22.32
2019-05-09T10:17:23.015Z,21.54
2019-05-09T10:18:21.988Z,21.34
2019-05-09T10:19:21.973Z,21.09
2019-05-09T10:20:22.011Z,22.20
2019-05-09T10:21:21.953Z,22.93
2019-05-09T10:22:24.842Z,22.49
2019-05-09T10:23:21.952Z,22.31
2019-05-09T10:24:21.924Z,22.10
2019-05-09T10:25:21.912Z,21.50
2019-05-09T10:26:21.899Z,20.54
2019-05-09T10:27:21.887Z,20.05
2019-05-09T10:28:21.974Z,19.40
2019-05-09T10:29:21.863Z,19.35
2019-05-09T10:30:21.850Z,19.23
2019-05-09T10:31:21.882Z,19.25
2019-05-09T10:32:21.832Z,19.08
2019-05-09T10:33:21.837Z,18.90
2019-05-09T10:34:21.806Z,18.80
2019-05-09T10:35:21.793Z,18.64
2019-05-09T10:36:21.782Z,18.72
2019-05-09T10:37:21.771Z,19.14
2019-05-09T10:38:21.781Z,18.79
2019-05-09T10:39:21.750Z,18.87
2019-05-09T10:40:21.770Z,18.90
2019-05-09T10:41:21.726Z,19.06
2019-05-09T10:42:21.714Z,20.59
2019-05-09T10:43:34.752Z,21.60
2019-05-09T10:44:22.695Z,22.92
2019-05-09T10:45:21.680Z,22.28
2019-05-09T10:46:21.670Z,22.22
2019-05-09T10:47:21.657Z,21.76
2019-05-09T10:48:23.924Z,21.78
2019-05-09T10:49:21.635Z,22.12
2019-05-09T10:50:33.771Z,21.75
2019-05-09T10:51:22.612Z,21.54
2019-05-09T10:52:21.603Z,21.24
2019-05-09T10:53:21.588Z,21.64
2019-05-09T10:54:21.598Z,21.83
2019-05-09T10:55:21.568Z,21.56
2019-05-09T10:56:21.556Z,21.38
2019-05-09T10:57:21.546Z,20.84
2019-05-09T10:58:23.808Z,20.59
2019-05-09T10:59:21.540Z,21.13
2019-05-09T11:00:21.509Z,21.57
2019-05-09T11:01:21.495Z,22.14
2019-05-09T11:02:21.487Z,22.09
2019-05-09T11:03:21.504Z,22.14
2019-05-09T11:04:21.485Z,22.90
2019-05-09T11:05:21.459Z,23.72
2019-05-09T11:06:21.440Z,23.50
2019-05-09T11:07:21.436Z,23.11
2019-05-09T11:08:21.421Z,22.27
2019-05-09T11:09:21.424Z,21.48
2019-05-09T11:10:27.763Z,21.54
2019-05-09T11:11:22.426Z,22.57
2019-05-09T11:12:21.372Z,23.02
2019-05-09T11:13:21.365Z,23.43
2019-05-09T11:14:35.976Z,23.95
2019-05-09T11:15:22.337Z,24.61
2019-05-09T11:16:21.334Z,24.90
2019-05-09T11:17:21.993Z,24.39
2019-05-09T11:18:21.311Z,23.14
2019-05-09T11:19:21.318Z,21.38
2019-05-09T11:20:21.288Z,21.32
2019-05-09T11:21:21.274Z,21.91
2019-05-09T11:22:23.434Z,21.59
2019-05-09T11:23:21.256Z,21.34
2019-05-09T11:24:21.251Z,20.84
2019-05-09T11:25:21.252Z,20.69
2019-05-09T11:26:21.219Z,20.24
2019-05-09T11:27:21.208Z,21.39
2019-05-09T11:28:21.198Z,22.14
2019-05-09T11:29:21.187Z,21.82
2019-05-09T11:30:21.194Z,21.45
2019-05-09T11:31:21.399Z,21.36
2019-05-09T11:32:21.150Z,21.16
2019-05-09T11:33:21.143Z,20.80
2019-05-09T11:34:21.127Z,20.24
2019-05-09T11:35:21.151Z,19.86
2019-05-09T11:36:21.397Z,19.46
2019-05-09T11:37:22.293Z,19.38
2019-05-09T11:38:32.527Z,19.05
2019-05-09T11:39:35.766Z,19.24
2019-05-09T11:40:22.156Z,19.13
2019-05-09T11:41:21.073Z,19.33
2019-05-09T11:42:21.053Z,20.65
2019-05-09T11:43:21.030Z,21.78
2019-05-09T11:44:21.025Z,22.28
2019-05-09T11:45:21.032Z,23.12
2019-05-09T11:46:20.990Z,22.67
2019-05-09T11:47:32.036Z,21.30
2019-05-09T11:48:21.972Z,20.66
2019-05-09T11:49:20.976Z,19.94
2019-05-09T11:50:23.145Z,19.63
2019-05-09T11:51:22.840Z,19.18
2019-05-09T11:52:20.945Z,18.91
2019-05-09T11:53:20.914Z,18.76
2019-05-09T11:54:20.937Z,18.42
2019-05-09T11:55:29.930Z,18.15
2019-05-09T11:56:21.990Z,18.29
2019-05-09T11:57:20.866Z,18.31
2019-05-09T11:58:20.865Z,18.37
2019-05-09T11:59:20.851Z,18.33
2019-05-09T12:00:20.845Z,18.24
2019-05-09T12:01:20.847Z,18.12
2019-05-09T12:02:20.806Z,17.94
2019-05-09T12:03:20.812Z,17.92
2019-05-09T12:04:20.813Z,17.76
2019-05-09T12:05:20.787Z,17.87
2019-05-09T12:06:20.785Z,17.99
2019-05-09T12:07:20.753Z,18.15
2019-05-09T12:08:20.751Z,18.03
2019-05-09T12:09:20.748Z,18.02
2019-05-09T12:10:20.717Z,17.91
2019-05-09T12:11:20.739Z,18.10
2019-05-09T12:12:20.705Z,18.28
2019-05-09T12:13:20.694Z,18.33
2019-05-09T12:14:20.677Z,18.42
2019-05-09T12:15:20.677Z,18.62
2019-05-09T12:16:20.690Z,18.58
2019-05-09T12:17:20.650Z,18.79
2019-05-09T12:18:20.641Z,18.72
2019-05-09T12:19:20.617Z,18.68
2019-05-09T12:20:20.604Z,18.79
2019-05-09T12:21:20.605Z,18.80
2019-05-09T12:22:20.621Z,18.82
2019-05-09T12:23:20.583Z,18.77
2019-05-09T12:24:20.573Z,18.80
2019-05-09T12:25:20.575Z,18.52
2019-05-09T12:26:20.536Z,18.73
2019-05-09T12:27:20.558Z,18.87
2019-05-09T12:28:20.524Z,18.97
2019-05-09T12:29:20.516Z,19.18
2019-05-09T12:30:20.492Z,18.83
2019-05-09T12:31:20.497Z,18.98
2019-05-09T12:32:20.491Z,18.77
2019-05-09T12:33:20.457Z,18.79
2019-05-09T12:34:20.447Z,18.72
2019-05-09T12:35:20.438Z,18.59
2019-05-09T12:36:20.440Z,18.83
2019-05-09T12:37:20.416Z,19.17
2019-05-09T12:38:20.415Z,18.91
2019-05-09T12:39:20.412Z,18.49
2019-05-09T12:40:20.397Z,18.43
2019-05-09T12:41:20.387Z,18.36
2019-05-09T12:42:20.356Z,18.36
2019-05-09T12:43:20.344Z,18.39
2019-05-09T12:44:20.346Z,18.33
2019-05-09T12:45:20.354Z,18.13
2019-05-09T12:46:20.342Z,18.24
2019-05-09T12:47:20.332Z,18.21
2019-05-09T12:48:20.327Z,18.15
2019-05-09T12:49:20.285Z,18.02
2019-05-09T12:50:20.294Z,18.18
2019-05-09T12:51:20.288Z,18.09
2019-05-09T12:52:20.266Z,17.97
2019-05-09T12:53:20.232Z,17.92
2019-05-09T12:54:20.217Z,18.13
2019-05-09T12:55:20.212Z,18.07
2019-05-09T12:56:20.242Z,18.12
2019-05-09T12:57:20.311Z,17.91
2019-05-09T12:58:20.173Z,17.91
2019-05-09T12:59:20.187Z,18.07
2019-05-09T13:00:20.175Z,18.00
2019-05-09T13:01:20.143Z,17.91